Tetonia, ID

7:04 AM MDT on August 27, 2014 (GMT -0600)
ITD River Rim ID US | Change Station
CLOSE
Current Station
Personal Weather Station
Location: Felt, ID
Elevation: 6187 ft
Nearby Weather Stations

Elev 6187 ft 43.86 °N, 111.28 °W | Updated 49 minutes ago

Clear
Clear
42 °F
Feels Like 38 °F
N
6
Wind Variable Wind from SSE
Gusts 8.0 mph

Today
High -- | Low -- °F
--% Chance of Precip.
Yesterday
High -- | Low -- °F
Precip. -- in
6:42 AM 8:09 PM
Waxing Crescent, 3% visible
Pressure 30.09 in
Visibility 10.0 miles
Clouds Clear
Windchill 38 °F
Dew Point 41 °F
Humidity 96%
Rainfall -999.00 in
Snow Depth Not available.
UV 0 out of 12
Pollen 8.30 out of 12
Air Quality Not available.
Flu Activity Not available.
METAR KDIJ 271256Z AUTO 15004KT 10SM CLR 07/06 A3029 RMK AO2 T00660055 SLP188

More Conditions Fewer Conditions

Pressure 30.09 in
Visibility 10.0 miles
Clouds Clear
Windchill 38 °F
Dew Point 41 °F
Humidity 96%
Rainfall -999.00 in
Snow Depth Not available.
UV 0 out of 12
Pollen 8.30 out of 12
Air Quality Not available.
Flu Activity Not available.
METAR KDIJ 271256Z AUTO 15004KT 10SM CLR 07/06 A3029 RMK AO2 T00660055 SLP188

More Conditions Fewer Conditions

10-Day Weather Forecast

Almanac

Astronomy

Aug. 27, 2014 Rise Set
Actual Time 6:42 AM MDT 8:09 PM MDT
Civil Twilight 6:12 AM MDT 8:39 PM MDT
Nautical Twilight 5:36 AM MDT 9:15 PM MDT
Astronomical Twilight 4:57 AM MDT 9:53 PM MDT
Moon 8:47 AM MDT 8:56 PM MDT
Length of Visible Light 14h 26m
Length of Day
13h 26m
Tomorrow will be 2m 52s shorter.
Waxing Crescent, 3% of the Moon is Illuminated
Today
Waxing Crescent
Sep 2
First Quarter
Sep 8
Full
Sep 15
Last Quarter
Sep 24
New

Today's Extremes

State Highs State Lows

Community

WunderPhotos

Upload Photos

1,747,680 photos uploaded!

Nearby

Snow Depth

Station Depth Elevation
Pine Creek Pass 0 in 6720 ft
Island Park 0 in 6290 ft
White Elephant 1 in 7710 ft
Sheep Mountain 0 in 6570 ft
Crab Creek 0 in 6860 ft

Earthquake Activity

City Distance Mag. Time & Date
No recent earthquake activity has been reported nearby.
Minimum magnitude displayed is 2.5.

Coastal Water Temperatures

Place Temperature
No Stations Reporting

Nearby Weather Stations